createdAt,value
2022-11-23T00:01:27.119Z,6.90
2022-11-23T00:03:57.228Z,6.70
2022-11-23T00:06:25.898Z,6.60
2022-11-23T00:08:54.341Z,7.00
2022-11-23T00:11:23.962Z,6.70
2022-11-23T00:13:51.924Z,6.80
2022-11-23T00:16:22.304Z,6.40
2022-11-23T00:18:52.004Z,6.50
2022-11-23T00:21:19.440Z,6.50
2022-11-23T00:23:47.031Z,7.00
2022-11-23T00:26:15.973Z,6.60
2022-11-23T00:28:43.876Z,6.70
2022-11-23T00:31:13.603Z,6.60
2022-11-23T00:33:41.140Z,6.70
2022-11-23T00:36:14.261Z,7.30
2022-11-23T00:38:43.429Z,6.60
2022-11-23T00:41:17.244Z,6.50
2022-11-23T00:43:44.809Z,6.80
2022-11-23T00:46:17.784Z,7.00
2022-11-23T00:48:46.694Z,6.70
2022-11-23T00:51:16.569Z,6.70
2022-11-23T00:53:44.519Z,6.80
2022-11-23T00:56:13.035Z,7.80
2022-11-23T00:58:40.474Z,7.80
2022-11-23T01:01:09.104Z,6.60
2022-11-23T01:03:38.497Z,7.70
2022-11-23T01:06:11.678Z,7.80
2022-11-23T01:08:39.928Z,6.70
2022-11-23T01:11:10.980Z,7.10
2022-11-23T01:13:40.142Z,6.70
2022-11-23T01:16:24.692Z,6.60
2022-11-23T01:18:57.317Z,6.60
2022-11-23T01:21:25.917Z,6.60
2022-11-23T01:23:53.799Z,6.80
2022-11-23T01:26:21.192Z,6.50
2022-11-23T01:28:48.985Z,6.80
2022-11-23T01:31:19.223Z,6.90
2022-11-23T01:33:46.971Z,7.50
2022-11-23T01:36:20.114Z,6.70
2022-11-23T01:38:48.128Z,6.90
2022-11-23T01:41:24.943Z,6.70
2022-11-23T01:43:52.671Z,6.70
2022-11-23T01:46:20.385Z,6.90
2022-11-23T01:49:08.070Z,6.70
2022-11-23T01:51:39.507Z,6.90
2022-11-23T01:54:24.818Z,6.80
2022-11-23T01:56:57.366Z,6.80
2022-11-23T01:59:26.938Z,7.80
2022-11-23T02:01:54.652Z,7.10
2022-11-23T02:04:29.708Z,6.70
2022-11-23T02:06:59.602Z,6.90
2022-11-23T02:09:31.243Z,6.70
2022-11-23T02:11:59.317Z,6.90
2022-11-23T02:14:26.840Z,7.30
2022-11-23T02:16:58.960Z,6.90
2022-11-23T02:19:54.535Z,7.00
2022-11-23T02:22:35.268Z,6.90
2022-11-23T02:25:10.905Z,6.80
2022-11-23T02:27:40.506Z,7.00
2022-11-23T02:30:11.860Z,7.10
2022-11-23T02:32:39.276Z,6.90
2022-11-23T02:35:06.760Z,6.90
2022-11-23T02:37:34.031Z,6.80
2022-11-23T02:40:04.648Z,7.00
2022-11-23T02:42:35.692Z,6.80
2022-11-23T02:45:26.733Z,6.90
2022-11-23T02:47:54.041Z,6.80
2022-11-23T02:52:48.988Z,6.80
2022-11-23T02:55:16.385Z,7.00
2022-11-23T02:57:43.708Z,6.80
2022-11-23T03:00:12.424Z,7.00
2022-11-23T03:02:39.742Z,6.60
2022-11-23T03:05:07.484Z,7.20
2022-11-23T03:07:35.131Z,6.80
2022-11-23T03:10:02.504Z,7.00
2022-11-23T03:12:30.914Z,6.60
2022-11-23T03:14:59.489Z,6.80
2022-11-23T03:17:28.064Z,6.70
2022-11-23T03:19:55.334Z,6.80
2022-11-23T03:22:24.821Z,7.00
2022-11-23T03:24:53.782Z,6.80
2022-11-23T03:27:21.049Z,7.80
2022-11-23T03:29:48.432Z,6.60
2022-11-23T03:32:20.048Z,6.70
2022-11-23T03:34:50.973Z,6.60
2022-11-23T03:37:20.465Z,6.60
2022-11-23T03:39:48.425Z,6.70
2022-11-23T03:42:34.653Z,6.60
2022-11-23T03:45:02.130Z,6.90
2022-11-23T03:47:30.191Z,6.30
2022-11-23T03:49:57.591Z,6.60
2022-11-23T03:52:24.837Z,6.50
2022-11-23T03:54:52.133Z,6.20
2022-11-23T03:57:19.407Z,6.70
2022-11-23T03:59:47.698Z,6.60
2022-11-23T04:04:50.907Z,6.20
2022-11-23T04:07:45.930Z,6.10
2022-11-23T04:10:17.997Z,6.20
2022-11-23T04:13:00.907Z,6.70
2022-11-23T04:17:56.414Z,6.20
2022-11-23T04:20:24.215Z,6.30
2022-11-23T04:22:51.493Z,6.20
2022-11-23T04:25:19.272Z,6.40
2022-11-23T04:27:48.695Z,6.90
2022-11-23T04:30:16.124Z,6.40
2022-11-23T04:32:47.363Z,6.50
2022-11-23T04:35:15.350Z,6.50
2022-11-23T04:37:45.293Z,6.40
2022-11-23T04:40:14.067Z,6.40
2022-11-23T04:42:47.354Z,6.40
2022-11-23T04:45:15.032Z,6.40
2022-11-23T04:47:43.789Z,6.40
2022-11-23T04:50:14.257Z,6.30
2022-11-23T04:52:45.516Z,6.60
2022-11-23T04:55:18.188Z,6.30
2022-11-23T04:57:53.138Z,6.30
2022-11-23T05:00:20.605Z,6.30
2022-11-23T05:02:48.623Z,6.30
2022-11-23T05:05:21.087Z,6.20
2022-11-23T05:07:48.349Z,6.30
2022-11-23T05:10:18.031Z,6.50
2022-11-23T05:12:46.997Z,6.30
2022-11-23T05:15:14.711Z,6.30
2022-11-23T05:17:42.507Z,6.50
2022-11-23T05:20:16.563Z,6.50
2022-11-23T05:22:48.448Z,6.40
2022-11-23T05:25:20.109Z,6.40
2022-11-23T05:27:54.310Z,6.40
2022-11-23T05:30:22.116Z,6.50
2022-11-23T05:32:49.694Z,6.40
2022-11-23T05:35:18.785Z,6.50
2022-11-23T05:37:46.178Z,6.60
2022-11-23T05:40:14.089Z,6.50
2022-11-23T05:42:42.148Z,6.60
2022-11-23T05:45:15.618Z,6.50
2022-11-23T05:47:51.101Z,6.90
2022-11-23T05:50:25.273Z,7.00
2022-11-23T05:53:12.490Z,6.80
2022-11-23T05:55:41.172Z,6.80
2022-11-23T05:58:08.924Z,6.90
2022-11-23T06:00:36.880Z,6.80
2022-11-23T06:03:06.498Z,6.30
2022-11-23T06:05:33.996Z,7.10
2022-11-23T06:08:01.417Z,6.80
2022-11-23T06:10:28.659Z,6.90
2022-11-23T06:13:03.538Z,7.10
2022-11-23T06:15:31.792Z,7.00
2022-11-23T06:18:01.080Z,6.80
2022-11-23T06:20:36.792Z,7.40
2022-11-23T06:23:04.350Z,7.70
2022-11-23T06:25:31.787Z,7.20
2022-11-23T06:28:10.143Z,7.50
2022-11-23T06:30:47.128Z,7.60
2022-11-23T06:33:14.896Z,7.60
2022-11-23T06:35:59.623Z,7.70
2022-11-23T06:38:31.933Z,7.80
2022-11-23T06:41:03.822Z,8.10
2022-11-23T06:43:31.949Z,7.90
2022-11-23T06:46:05.154Z,8.60
2022-11-23T06:48:34.048Z,8.00
2022-11-23T06:51:02.115Z,8.00
2022-11-23T06:53:31.546Z,8.10
2022-11-23T06:56:03.872Z,8.20
2022-11-23T06:58:32.511Z,8.30
2022-11-23T07:01:07.350Z,8.40
2022-11-23T07:03:41.661Z,8.40
2022-11-23T07:06:25.499Z,8.50
2022-11-23T07:08:56.186Z,8.90
2022-11-23T07:11:43.881Z,8.60
2022-11-23T07:14:12.245Z,9.10
2022-11-23T07:16:42.837Z,8.90
2022-11-23T07:19:10.729Z,9.30
2022-11-23T07:21:38.022Z,8.60
2022-11-23T07:24:06.197Z,8.90
2022-11-23T07:26:33.429Z,8.60
2022-11-23T07:29:01.879Z,8.60
2022-11-23T07:31:29.192Z,8.80
2022-11-23T07:33:56.589Z,8.70
2022-11-23T07:36:24.124Z,8.60
2022-11-23T07:38:51.458Z,8.80
2022-11-23T07:41:20.841Z,8.90
2022-11-23T07:43:57.885Z,9.90
2022-11-23T07:46:25.463Z,9.10
2022-11-23T07:48:54.466Z,8.80
2022-11-23T07:51:21.841Z,9.30
2022-11-23T07:53:49.204Z,9.20
2022-11-23T07:56:16.517Z,9.00
2022-11-23T07:58:43.813Z,9.20
2022-11-23T08:01:18.358Z,9.30
2022-11-23T08:03:46.949Z,9.30
2022-11-23T08:06:15.356Z,9.20
2022-11-23T08:08:43.606Z,9.20
2022-11-23T08:11:14.580Z,9.80
2022-11-23T08:13:41.873Z,9.50
2022-11-23T08:16:09.173Z,9.60
2022-11-23T08:18:36.740Z,9.70
2022-11-23T08:21:04.453Z,9.50
2022-11-23T08:23:31.733Z,9.50
2022-11-23T08:25:59.053Z,9.50
2022-11-23T08:28:26.368Z,9.90
2022-11-23T08:30:53.623Z,9.60
2022-11-23T08:33:20.884Z,9.60
2022-11-23T08:35:48.184Z,10.10
2022-11-23T08:38:15.523Z,9.80
2022-11-23T08:40:42.744Z,9.80
2022-11-23T08:43:10.046Z,10.00
2022-11-23T08:45:37.321Z,10.00
2022-11-23T08:48:04.993Z,10.10
2022-11-23T08:50:34.538Z,9.90
2022-11-23T08:53:01.791Z,10.00
2022-11-23T08:55:29.281Z,10.00
2022-11-23T08:57:59.628Z,9.90
2022-11-23T09:00:28.063Z,10.70
2022-11-23T09:02:58.201Z,10.10
2022-11-23T09:05:26.428Z,10.20
2022-11-23T09:07:53.885Z,10.20
2022-11-23T09:10:21.432Z,10.10
2022-11-23T09:12:49.222Z,10.20
2022-11-23T09:15:16.795Z,10.40
2022-11-23T09:17:44.320Z,10.20
2022-11-23T09:20:12.610Z,10.20
2022-11-23T09:22:39.849Z,10.10
2022-11-23T09:25:07.790Z,10.10
2022-11-23T09:27:35.075Z,10.10
2022-11-23T09:30:03.757Z,10.90
2022-11-23T09:32:32.493Z,10.20
2022-11-23T09:34:59.692Z,10.50
2022-11-23T09:37:26.937Z,10.40
2022-11-23T09:39:54.350Z,11.30
2022-11-23T09:42:38.896Z,10.70
2022-11-23T09:45:35.117Z,11.10
2022-11-23T09:48:24.681Z,10.80
2022-11-23T09:51:08.701Z,10.90
2022-11-23T09:53:45.559Z,10.90
2022-11-23T09:56:34.015Z,11.20
2022-11-23T09:59:12.757Z,11.00
2022-11-23T10:01:40.878Z,11.10
2022-11-23T10:04:19.919Z,11.10
2022-11-23T10:07:00.931Z,11.20
2022-11-23T10:09:51.971Z,11.00
2022-11-23T10:12:46.395Z,10.90
2022-11-23T10:15:33.615Z,10.90
2022-11-23T10:18:25.485Z,11.00
2022-11-23T10:21:05.117Z,10.90
2022-11-23T10:24:01.950Z,11.10
2022-11-23T10:26:33.840Z,10.90
2022-11-23T10:29:15.715Z,11.10
2022-11-23T10:31:53.965Z,10.90
2022-11-23T10:35:00.499Z,11.10
2022-11-23T10:37:27.771Z,11.00
2022-11-23T10:39:55.248Z,11.00
2022-11-23T10:42:45.061Z,10.80
2022-11-23T10:45:26.698Z,10.90
2022-11-23T10:48:00.311Z,10.90
2022-11-23T10:50:37.261Z,11.00
2022-11-23T10:53:23.551Z,11.10
2022-11-23T10:55:59.304Z,11.20
2022-11-23T10:58:34.995Z,11.20
2022-11-23T11:01:05.027Z,11.30
2022-11-23T11:03:34.446Z,11.40
2022-11-23T11:06:10.403Z,11.70
2022-11-23T11:09:21.141Z,12.00
2022-11-23T11:11:52.687Z,12.50
2022-11-23T11:14:24.840Z,12.40
2022-11-23T11:17:00.522Z,12.50
2022-11-23T11:19:35.690Z,12.10
2022-11-23T11:22:25.167Z,12.00
2022-11-23T11:24:53.394Z,13.40
2022-11-23T11:27:26.593Z,12.50
2022-11-23T11:29:57.936Z,12.20
2022-11-23T11:33:01.922Z,12.10
2022-11-23T11:35:34.606Z,12.10
2022-11-23T11:38:25.483Z,12.90
2022-11-23T11:40:53.167Z,12.30
2022-11-23T11:43:37.592Z,12.40
2022-11-23T11:46:35.418Z,12.60
2022-11-23T11:49:37.083Z,13.60
2022-11-23T11:52:15.329Z,12.90
2022-11-23T11:55:11.630Z,14.00
2022-11-23T11:57:47.545Z,13.50
2022-11-23T12:00:19.018Z,13.50
2022-11-23T12:02:57.705Z,13.40
2022-11-23T12:05:40.413Z,13.70
2022-11-23T12:08:25.875Z,13.40
2022-11-23T12:10:56.899Z,13.20
2022-11-23T12:13:29.702Z,13.10
2022-11-23T12:16:23.294Z,13.30
2022-11-23T12:18:59.113Z,13.10
2022-11-23T12:21:32.236Z,13.10
2022-11-23T12:24:08.029Z,13.00
2022-11-23T12:26:59.071Z,13.20
2022-11-23T12:29:51.450Z,13.20
2022-11-23T12:32:49.042Z,13.20
2022-11-23T12:36:04.873Z,13.10
2022-11-23T12:39:03.133Z,13.10
2022-11-23T12:42:05.534Z,13.40
2022-11-23T12:44:38.677Z,14.10
2022-11-23T12:47:35.071Z,13.80
2022-11-23T12:50:23.477Z,13.90
2022-11-23T12:53:23.487Z,13.90
2022-11-23T12:56:03.148Z,14.10
2022-11-23T12:58:32.442Z,14.00
2022-11-23T13:01:08.747Z,14.20
2022-11-23T13:04:13.813Z,13.90
2022-11-23T13:07:30.549Z,14.10
2022-11-23T13:10:26.680Z,14.20
2022-11-23T13:13:06.980Z,14.50
2022-11-23T13:15:45.965Z,14.70
2022-11-23T13:18:23.278Z,14.80
2022-11-23T13:21:24.148Z,14.80
2022-11-23T13:23:51.545Z,14.80
2022-11-23T13:26:24.238Z,14.50
2022-11-23T13:29:00.364Z,14.60
2022-11-23T13:31:33.478Z,14.90
2022-11-23T13:34:24.098Z,14.60
2022-11-23T13:37:17.094Z,14.50
2022-11-23T13:39:45.017Z,14.50
2022-11-23T13:42:13.524Z,14.60
2022-11-23T13:44:40.876Z,14.70
2022-11-23T13:47:15.932Z,14.60
2022-11-23T13:49:50.260Z,14.70
2022-11-23T13:52:23.673Z,15.10
2022-11-23T13:54:55.148Z,15.10
2022-11-23T13:57:23.437Z,15.10
2022-11-23T13:59:50.888Z,15.30
2022-11-23T14:02:28.722Z,15.20
2022-11-23T14:05:33.478Z,14.80
2022-11-23T14:08:02.999Z,14.40
2022-11-23T14:10:32.077Z,14.00
2022-11-23T14:13:11.543Z,13.80
2022-11-23T14:15:41.308Z,13.60
2022-11-23T14:18:27.704Z,13.70
2022-11-23T14:20:54.961Z,13.50
2022-11-23T14:23:42.869Z,13.60
2022-11-23T14:26:33.671Z,13.50
2022-11-23T14:29:23.989Z,14.00
2022-11-23T14:31:57.641Z,14.30
2022-11-23T14:34:41.029Z,14.80
2022-11-23T14:37:11.332Z,14.70
2022-11-23T14:39:44.221Z,14.80
2022-11-23T14:42:21.378Z,14.80
2022-11-23T14:44:50.792Z,14.60
2022-11-23T14:47:30.334Z,14.30
2022-11-23T14:49:58.351Z,14.30
2022-11-23T14:52:33.186Z,13.90
2022-11-23T14:55:03.879Z,13.80
2022-11-23T14:57:46.489Z,14.00
2022-11-23T15:00:29.154Z,14.00
2022-11-23T15:03:15.385Z,13.60
2022-11-23T15:05:57.014Z,13.80
2022-11-23T15:08:31.881Z,13.60
2022-11-23T15:11:12.346Z,13.80
2022-11-23T15:13:53.361Z,13.10
2022-11-23T15:16:22.349Z,13.40
2022-11-23T15:18:49.977Z,13.10
2022-11-23T15:21:26.938Z,12.90
2022-11-23T15:23:57.785Z,13.00
2022-11-23T15:29:35.577Z,13.20
2022-11-23T15:32:30.662Z,13.00
2022-11-23T15:35:02.665Z,12.80
2022-11-23T15:37:32.451Z,13.40
2022-11-23T15:40:00.423Z,12.80
2022-11-23T15:42:28.453Z,12.60
2022-11-23T15:44:56.671Z,12.80
2022-11-23T15:47:28.121Z,12.50
2022-11-23T15:50:01.465Z,12.40
2022-11-23T15:52:36.201Z,11.90
2022-11-23T15:55:10.118Z,12.30
2022-11-23T15:57:39.473Z,11.90
2022-11-23T16:00:09.426Z,12.00
2022-11-23T16:02:39.727Z,11.30
2022-11-23T16:05:19.087Z,11.70
2022-11-23T16:07:51.893Z,11.60
2022-11-23T16:10:23.115Z,11.50
2022-11-23T16:12:59.648Z,11.60
2022-11-23T16:15:44.477Z,11.50
2022-11-23T16:18:18.007Z,11.50
2022-11-23T16:21:07.238Z,11.40
2022-11-23T16:24:01.007Z,11.30
2022-11-23T16:26:32.469Z,11.20
2022-11-23T16:29:00.400Z,11.40
2022-11-23T16:31:36.864Z,11.50
2022-11-23T16:34:15.690Z,11.60
2022-11-23T16:36:43.223Z,11.10
2022-11-23T16:39:11.104Z,11.30
2022-11-23T16:41:38.423Z,11.00
2022-11-23T16:44:05.682Z,11.10
2022-11-23T16:46:33.312Z,12.00
2022-11-23T16:49:01.339Z,11.10
2022-11-23T16:51:28.741Z,10.80
2022-11-23T16:54:14.484Z,11.80
2022-11-23T16:56:45.064Z,10.70
2022-11-23T16:59:18.502Z,11.10
2022-11-23T17:01:55.546Z,10.90
2022-11-23T17:04:25.245Z,10.90
2022-11-23T17:06:52.560Z,10.70
2022-11-23T17:09:19.863Z,10.40
2022-11-23T17:11:50.787Z,10.70
2022-11-23T17:14:19.692Z,10.70
2022-11-23T17:16:48.104Z,10.60
2022-11-23T17:19:17.058Z,10.80
2022-11-23T17:21:44.738Z,10.80
2022-11-23T17:24:13.625Z,10.90
2022-11-23T17:26:44.345Z,11.50
2022-11-23T17:29:19.452Z,11.30
2022-11-23T17:31:48.102Z,10.80
2022-11-23T17:34:16.163Z,10.90
2022-11-23T17:36:45.512Z,10.60
2022-11-23T17:39:25.149Z,10.60
2022-11-23T17:41:52.561Z,10.70
2022-11-23T17:44:20.029Z,10.80
2022-11-23T17:46:47.799Z,10.60
2022-11-23T17:49:17.917Z,10.60
2022-11-23T17:51:45.515Z,10.60
2022-11-23T17:56:40.389Z,10.70
2022-11-23T17:59:08.670Z,10.60
2022-11-23T18:01:35.949Z,10.70
2022-11-23T18:04:04.876Z,10.90
2022-11-23T18:06:32.681Z,10.60
2022-11-23T18:08:59.982Z,10.60
2022-11-23T18:11:28.539Z,10.70
2022-11-23T18:13:55.869Z,10.60
2022-11-23T18:16:23.390Z,11.50
2022-11-23T18:18:51.092Z,10.80
2022-11-23T18:21:18.838Z,11.00
2022-11-23T18:23:46.356Z,10.90
2022-11-23T18:26:25.859Z,11.20
2022-11-23T18:28:53.632Z,11.50
2022-11-23T18:31:21.045Z,10.90
2022-11-23T18:33:48.350Z,10.70
2022-11-23T18:36:15.936Z,11.00
2022-11-23T18:38:46.488Z,10.90
2022-11-23T18:41:16.393Z,10.80
2022-11-23T18:43:44.677Z,11.20
2022-11-23T18:46:19.522Z,11.10
2022-11-23T18:48:48.693Z,10.70
2022-11-23T18:51:17.516Z,10.90
2022-11-23T18:53:47.427Z,10.70
2022-11-23T18:56:14.784Z,10.80
2022-11-23T18:58:44.544Z,10.90
2022-11-23T19:01:20.531Z,10.90
2022-11-23T19:03:50.225Z,10.70
2022-11-23T19:06:19.918Z,10.70
2022-11-23T19:08:49.961Z,10.90
2022-11-23T19:11:23.016Z,10.80
2022-11-23T19:13:53.340Z,10.80
2022-11-23T19:16:23.513Z,10.90
2022-11-23T19:18:56.664Z,10.70
2022-11-23T19:21:28.682Z,10.60
2022-11-23T19:23:57.361Z,10.60
2022-11-23T19:26:25.780Z,10.50
2022-11-23T19:28:53.825Z,10.60
2022-11-23T19:31:27.212Z,10.70
2022-11-23T19:33:58.371Z,10.40
2022-11-23T19:36:26.132Z,10.60
2022-11-23T19:38:55.218Z,11.00
2022-11-23T19:41:26.731Z,10.80
2022-11-23T19:43:59.249Z,10.30
2022-11-23T19:46:27.205Z,10.80
2022-11-23T19:48:57.112Z,10.20
2022-11-23T19:51:25.369Z,10.50
2022-11-23T19:53:54.627Z,10.30
2022-11-23T19:56:24.106Z,10.40
2022-11-23T19:58:53.277Z,10.50
2022-11-23T20:01:22.464Z,10.50
2022-11-23T20:03:52.032Z,10.40
2022-11-23T20:06:25.268Z,10.70
2022-11-23T20:09:04.360Z,10.40
2022-11-23T20:11:33.539Z,10.80
2022-11-23T20:14:01.589Z,11.30
2022-11-23T20:16:31.723Z,10.40
2022-11-23T20:19:01.299Z,10.20
2022-11-23T20:21:29.606Z,10.50
2022-11-23T20:24:12.181Z,10.40
2022-11-23T20:26:40.940Z,10.30
2022-11-23T20:29:10.632Z,10.30
2022-11-23T20:31:38.099Z,10.30
2022-11-23T20:36:53.072Z,10.30
2022-11-23T20:39:20.322Z,10.40
2022-11-23T20:41:49.647Z,10.20
2022-11-23T20:44:17.153Z,10.40
2022-11-23T20:49:31.988Z,10.30
2022-11-23T20:52:00.371Z,10.50
2022-11-23T20:54:27.988Z,10.80
2022-11-23T20:56:55.235Z,10.10
2022-11-23T20:59:23.811Z,10.10
2022-11-23T21:01:51.562Z,11.10
2022-11-23T21:04:18.818Z,10.30
2022-11-23T21:06:46.032Z,9.90
2022-11-23T21:09:13.319Z,10.20
2022-11-23T21:11:59.411Z,10.10
2022-11-23T21:14:31.483Z,10.10
2022-11-23T21:17:00.557Z,10.00
2022-11-23T21:19:33.042Z,10.20
2022-11-23T21:22:05.292Z,10.20
2022-11-23T21:24:34.873Z,10.10
2022-11-23T21:27:04.270Z,10.00
2022-11-23T21:29:31.763Z,10.10
2022-11-23T21:31:59.213Z,10.50
2022-11-23T21:34:28.565Z,9.80
2022-11-23T21:36:56.921Z,10.40
2022-11-23T21:39:24.822Z,10.10
2022-11-23T21:41:53.722Z,9.90
2022-11-23T21:44:22.744Z,9.90
2022-11-23T21:46:50.393Z,9.90
2022-11-23T21:49:17.667Z,9.90
2022-11-23T21:51:45.820Z,11.00
2022-11-23T21:54:16.432Z,10.00
2022-11-23T21:56:45.654Z,9.90
2022-11-23T21:59:13.363Z,9.90
2022-11-23T22:01:40.816Z,9.90
2022-11-23T22:04:10.993Z,9.90
2022-11-23T22:06:39.168Z,9.90
2022-11-23T22:09:09.359Z,10.00
2022-11-23T22:11:40.890Z,9.90
2022-11-23T22:14:13.478Z,10.00
2022-11-23T22:16:42.986Z,9.90
2022-11-23T22:19:11.993Z,9.90
2022-11-23T22:21:41.116Z,9.90
2022-11-23T22:24:13.238Z,9.90
2022-11-23T22:26:40.878Z,9.90
2022-11-23T22:29:08.353Z,9.90
2022-11-23T22:31:36.123Z,9.90
2022-11-23T22:34:05.734Z,10.00
2022-11-23T22:36:33.081Z,10.20
2022-11-23T22:39:02.793Z,9.90
2022-11-23T22:41:36.168Z,10.20
2022-11-23T22:44:08.332Z,10.00
2022-11-23T22:46:36.139Z,10.00
2022-11-23T22:49:03.666Z,10.20
2022-11-23T22:51:31.065Z,10.10
2022-11-23T22:53:59.853Z,10.10
2022-11-23T22:56:28.830Z,10.20
2022-11-23T22:58:56.513Z,10.10
2022-11-23T23:01:26.824Z,10.10
2022-11-23T23:03:56.425Z,10.20
2022-11-23T23:06:26.462Z,10.20
2022-11-23T23:08:58.951Z,11.10
2022-11-23T23:11:28.390Z,10.40
2022-11-23T23:13:56.431Z,10.30
2022-11-23T23:16:24.754Z,10.30
2022-11-23T23:18:54.154Z,10.40
2022-11-23T23:21:22.105Z,10.30
2022-11-23T23:23:51.898Z,10.30
2022-11-23T23:26:21.929Z,10.30
2022-11-23T23:28:53.093Z,10.40
2022-11-23T23:31:20.437Z,10.40
2022-11-23T23:33:48.024Z,10.40
2022-11-23T23:36:17.550Z,10.80
2022-11-23T23:38:44.787Z,10.40
2022-11-23T23:41:13.494Z,10.20
2022-11-23T23:43:41.603Z,10.10
2022-11-23T23:46:11.848Z,9.90
2022-11-23T23:48:40.230Z,10.00
2022-11-23T23:51:14.816Z,9.50
2022-11-23T23:53:42.608Z,9.10
2022-11-23T23:56:18.563Z,9.20
2022-11-23T23:58:46.338Z,9.30
